sensor_id;sensor_type;location;lat;lon;timestamp;P1;durP1;ratioP1;P2;durP2;ratioP2
83634;SDS011;73596;49.482;11.238;2024-01-11T00:00:34;17.13;;;4.75;;
83634;SDS011;73596;49.482;11.238;2024-01-11T00:03:00;17.27;;;6.75;;
83634;SDS011;73596;49.482;11.238;2024-01-11T00:05:25;13.02;;;5.53;;
83634;SDS011;73596;49.482;11.238;2024-01-11T00:07:51;8.70;;;4.67;;
83634;SDS011;73596;49.482;11.238;2024-01-11T00:10:17;14.70;;;5.30;;
83634;SDS011;73596;49.482;11.238;2024-01-11T00:12:42;9.25;;;4.05;;
83634;SDS011;73596;49.482;11.238;2024-01-11T00:15:07;10.70;;;5.07;;
83634;SDS011;73596;49.482;11.238;2024-01-11T00:17:33;6.53;;;4.18;;
83634;SDS011;73596;49.482;11.238;2024-01-11T00:19:59;19.58;;;7.25;;
83634;SDS011;73596;49.482;11.238;2024-01-11T00:22:24;12.73;;;4.83;;
83634;SDS011;73596;49.482;11.238;2024-01-11T00:24:49;13.20;;;5.13;;
83634;SDS011;73596;49.482;11.238;2024-01-11T00:27:15;12.17;;;3.97;;
83634;SDS011;73596;49.482;11.238;2024-01-11T00:29:40;12.50;;;6.43;;
83634;SDS011;73596;49.482;11.238;2024-01-11T00:32:05;11.33;;;4.93;;
83634;SDS011;73596;49.482;11.238;2024-01-11T00:34:30;10.43;;;5.00;;
83634;SDS011;73596;49.482;11.238;2024-01-11T00:36:56;15.17;;;6.90;;
83634;SDS011;73596;49.482;11.238;2024-01-11T00:39:21;14.43;;;5.30;;
83634;SDS011;73596;49.482;11.238;2024-01-11T00:41:46;16.50;;;5.20;;
83634;SDS011;73596;49.482;11.238;2024-01-11T00:44:11;10.43;;;5.23;;
83634;SDS011;73596;49.482;11.238;2024-01-11T00:46:37;10.43;;;3.47;;
83634;SDS011;73596;49.482;11.238;2024-01-11T00:49:03;13.50;;;5.28;;
83634;SDS011;73596;49.482;11.238;2024-01-11T00:51:28;11.80;;;4.65;;
83634;SDS011;73596;49.482;11.238;2024-01-11T00:53:53;11.27;;;4.93;;
83634;SDS011;73596;49.482;11.238;2024-01-11T00:56:19;10.60;;;5.47;;
83634;SDS011;73596;49.482;11.238;2024-01-11T00:58:45;7.60;;;4.57;;
83634;SDS011;73596;49.482;11.238;2024-01-11T01:01:10;9.93;;;4.85;;
83634;SDS011;73596;49.482;11.238;2024-01-11T01:03:36;12.32;;;5.07;;
83634;SDS011;73596;49.482;11.238;2024-01-11T01:06:02;16.02;;;8.18;;
83634;SDS011;73596;49.482;11.238;2024-01-11T01:08:27;21.30;;;7.20;;
83634;SDS011;73596;49.482;11.238;2024-01-11T01:10:53;10.88;;;5.50;;
83634;SDS011;73596;49.482;11.238;2024-01-11T01:13:18;11.90;;;4.20;;
83634;SDS011;73596;49.482;11.238;2024-01-11T01:15:43;8.93;;;4.10;;
83634;SDS011;73596;49.482;11.238;2024-01-11T01:18:08;7.93;;;4.03;;
83634;SDS011;73596;49.482;11.238;2024-01-11T01:20:34;12.07;;;5.40;;
83634;SDS011;73596;49.482;11.238;2024-01-11T01:22:59;10.13;;;4.73;;
83634;SDS011;73596;49.482;11.238;2024-01-11T01:25:24;8.77;;;4.43;;
83634;SDS011;73596;49.482;11.238;2024-01-11T01:27:50;12.93;;;3.97;;
83634;SDS011;73596;49.482;11.238;2024-01-11T01:30:15;10.30;;;3.60;;
83634;SDS011;73596;49.482;11.238;2024-01-11T01:32:40;6.15;;;3.22;;
83634;SDS011;73596;49.482;11.238;2024-01-11T01:35:06;11.60;;;3.70;;
83634;SDS011;73596;49.482;11.238;2024-01-11T01:37:32;13.27;;;4.68;;
83634;SDS011;73596;49.482;11.238;2024-01-11T01:39:58;17.63;;;5.20;;
83634;SDS011;73596;49.482;11.238;2024-01-11T01:42:23;13.83;;;6.20;;
83634;SDS011;73596;49.482;11.238;2024-01-11T01:44:48;10.10;;;5.03;;
83634;SDS011;73596;49.482;11.238;2024-01-11T01:47:13;7.63;;;2.93;;
83634;SDS011;73596;49.482;11.238;2024-01-11T01:49:39;11.93;;;4.63;;
83634;SDS011;73596;49.482;11.238;2024-01-11T01:52:04;17.23;;;6.43;;
83634;SDS011;73596;49.482;11.238;2024-01-11T01:54:32;8.13;;;4.38;;
83634;SDS011;73596;49.482;11.238;2024-01-11T01:56:57;17.65;;;4.97;;
83634;SDS011;73596;49.482;11.238;2024-01-11T01:59:24;11.80;;;6.70;;
83634;SDS011;73596;49.482;11.238;2024-01-11T02:01:50;9.13;;;5.43;;
83634;SDS011;73596;49.482;11.238;2024-01-11T02:04:17;13.80;;;4.60;;
83634;SDS011;73596;49.482;11.238;2024-01-11T02:06:44;11.82;;;6.97;;
83634;SDS011;73596;49.482;11.238;2024-01-11T02:09:11;10.70;;;5.32;;
83634;SDS011;73596;49.482;11.238;2024-01-11T02:11:38;9.45;;;3.03;;
83634;SDS011;73596;49.482;11.238;2024-01-11T02:14:04;8.45;;;3.88;;
83634;SDS011;73596;49.482;11.238;2024-01-11T02:16:29;13.77;;;4.70;;
83634;SDS011;73596;49.482;11.238;2024-01-11T02:18:54;11.17;;;5.00;;
83634;SDS011;73596;49.482;11.238;2024-01-11T02:21:20;6.23;;;3.63;;
83634;SDS011;73596;49.482;11.238;2024-01-11T02:24:03;7.18;;;3.33;;
83634;SDS011;73596;49.482;11.238;2024-01-11T02:26:29;9.13;;;4.43;;
83634;SDS011;73596;49.482;11.238;2024-01-11T02:28:54;10.03;;;4.27;;
83634;SDS011;73596;49.482;11.238;2024-01-11T02:31:19;7.13;;;3.17;;
83634;SDS011;73596;49.482;11.238;2024-01-11T02:33:45;6.43;;;3.60;;
83634;SDS011;73596;49.482;11.238;2024-01-11T02:36:10;8.98;;;4.47;;
83634;SDS011;73596;49.482;11.238;2024-01-11T02:38:35;5.05;;;3.20;;
83634;SDS011;73596;49.482;11.238;2024-01-11T02:41:02;15.05;;;4.22;;
83634;SDS011;73596;49.482;11.238;2024-01-11T02:43:28;5.55;;;3.38;;
83634;SDS011;73596;49.482;11.238;2024-01-11T02:45:56;10.37;;;3.63;;
83634;SDS011;73596;49.482;11.238;2024-01-11T02:48:26;7.50;;;3.72;;
83634;SDS011;73596;49.482;11.238;2024-01-11T02:50:52;14.15;;;4.40;;
83634;SDS011;73596;49.482;11.238;2024-01-11T02:53:17;10.73;;;4.40;;
83634;SDS011;73596;49.482;11.238;2024-01-11T02:55:43;5.10;;;2.10;;
83634;SDS011;73596;49.482;11.238;2024-01-11T02:58:08;11.13;;;3.53;;
83634;SDS011;73596;49.482;11.238;2024-01-11T03:00:33;5.63;;;3.23;;
83634;SDS011;73596;49.482;11.238;2024-01-11T03:02:58;6.33;;;2.37;;
83634;SDS011;73596;49.482;11.238;2024-01-11T03:05:24;11.23;;;3.07;;
83634;SDS011;73596;49.482;11.238;2024-01-11T03:07:49;10.67;;;3.33;;
83634;SDS011;73596;49.482;11.238;2024-01-11T03:10:14;6.97;;;3.40;;
83634;SDS011;73596;49.482;11.238;2024-01-11T03:12:40;6.93;;;3.65;;
83634;SDS011;73596;49.482;11.238;2024-01-11T03:15:05;8.98;;;3.15;;
83634;SDS011;73596;49.482;11.238;2024-01-11T03:17:31;9.32;;;3.17;;
83634;SDS011;73596;49.482;11.238;2024-01-11T03:19:57;12.00;;;4.32;;
83634;SDS011;73596;49.482;11.238;2024-01-11T03:22:22;6.60;;;2.77;;
83634;SDS011;73596;49.482;11.238;2024-01-11T03:24:47;9.70;;;3.73;;
83634;SDS011;73596;49.482;11.238;2024-01-11T03:27:13;5.07;;;2.00;;
83634;SDS011;73596;49.482;11.238;2024-01-11T03:29:38;5.73;;;3.03;;
83634;SDS011;73596;49.482;11.238;2024-01-11T03:32:03;6.30;;;4.47;;
83634;SDS011;73596;49.482;11.238;2024-01-11T03:34:29;9.10;;;4.75;;
83634;SDS011;73596;49.482;11.238;2024-01-11T03:36:54;4.87;;;2.70;;
83634;SDS011;73596;49.482;11.238;2024-01-11T03:39:19;5.13;;;1.77;;
83634;SDS011;73596;49.482;11.238;2024-01-11T03:41:45;4.90;;;3.10;;
83634;SDS011;73596;49.482;11.238;2024-01-11T03:44:10;9.00;;;4.13;;
83634;SDS011;73596;49.482;11.238;2024-01-11T03:46:36;15.25;;;5.70;;
83634;SDS011;73596;49.482;11.238;2024-01-11T03:49:01;8.05;;;3.38;;
83634;SDS011;73596;49.482;11.238;2024-01-11T03:51:27;13.02;;;5.38;;
83634;SDS011;73596;49.482;11.238;2024-01-11T03:53:52;9.23;;;4.07;;
83634;SDS011;73596;49.482;11.238;2024-01-11T03:56:17;4.57;;;2.70;;
83634;SDS011;73596;49.482;11.238;2024-01-11T03:58:43;7.23;;;3.67;;
83634;SDS011;73596;49.482;11.238;2024-01-11T04:01:09;6.13;;;3.22;;
83634;SDS011;73596;49.482;11.238;2024-01-11T04:03:35;8.02;;;4.63;;
83634;SDS011;73596;49.482;11.238;2024-01-11T04:06:01;14.75;;;4.70;;
83634;SDS011;73596;49.482;11.238;2024-01-11T04:08:26;8.73;;;3.10;;
83634;SDS011;73596;49.482;11.238;2024-01-11T04:10:51;5.10;;;2.73;;
83634;SDS011;73596;49.482;11.238;2024-01-11T04:13:17;4.47;;;2.70;;
83634;SDS011;73596;49.482;11.238;2024-01-11T04:15:42;1.97;;;1.77;;
83634;SDS011;73596;49.482;11.238;2024-01-11T04:18:07;7.33;;;3.70;;
83634;SDS011;73596;49.482;11.238;2024-01-11T04:20:32;10.07;;;2.43;;
83634;SDS011;73596;49.482;11.238;2024-01-11T04:22:58;8.03;;;3.27;;
83634;SDS011;73596;49.482;11.238;2024-01-11T04:25:23;7.40;;;3.83;;
83634;SDS011;73596;49.482;11.238;2024-01-11T04:27:48;7.23;;;3.23;;
83634;SDS011;73596;49.482;11.238;2024-01-11T04:30:13;6.97;;;3.37;;
83634;SDS011;73596;49.482;11.238;2024-01-11T04:32:39;11.80;;;5.07;;
83634;SDS011;73596;49.482;11.238;2024-01-11T04:35:04;8.77;;;2.80;;
83634;SDS011;73596;49.482;11.238;2024-01-11T04:37:30;14.38;;;5.78;;
83634;SDS011;73596;49.482;11.238;2024-01-11T04:39:55;7.03;;;2.80;;
83634;SDS011;73596;49.482;11.238;2024-01-11T04:42:24;13.57;;;4.75;;
83634;SDS011;73596;49.482;11.238;2024-01-11T04:44:50;11.63;;;4.50;;
83634;SDS011;73596;49.482;11.238;2024-01-11T04:47:15;6.53;;;3.10;;
83634;SDS011;73596;49.482;11.238;2024-01-11T04:49:41;8.77;;;5.23;;
83634;SDS011;73596;49.482;11.238;2024-01-11T04:52:06;4.80;;;2.63;;
83634;SDS011;73596;49.482;11.238;2024-01-11T04:54:31;9.73;;;3.70;;
83634;SDS011;73596;49.482;11.238;2024-01-11T04:56:56;6.17;;;2.50;;
83634;SDS011;73596;49.482;11.238;2024-01-11T04:59:22;3.28;;;2.63;;
83634;SDS011;73596;49.482;11.238;2024-01-11T05:01:48;8.00;;;3.37;;
83634;SDS011;73596;49.482;11.238;2024-01-11T05:04:13;13.77;;;4.10;;
83634;SDS011;73596;49.482;11.238;2024-01-11T05:06:38;12.90;;;5.40;;
83634;SDS011;73596;49.482;11.238;2024-01-11T05:09:03;21.10;;;4.47;;
83634;SDS011;73596;49.482;11.238;2024-01-11T05:11:29;7.78;;;3.70;;
83634;SDS011;73596;49.482;11.238;2024-01-11T05:13:55;7.32;;;3.00;;
83634;SDS011;73596;49.482;11.238;2024-01-11T05:16:21;8.32;;;2.50;;
83634;SDS011;73596;49.482;11.238;2024-01-11T05:18:47;4.85;;;2.47;;
83634;SDS011;73596;49.482;11.238;2024-01-11T05:21:13;9.48;;;6.00;;
83634;SDS011;73596;49.482;11.238;2024-01-11T05:23:40;7.17;;;3.27;;
83634;SDS011;73596;49.482;11.238;2024-01-11T05:26:08;7.05;;;2.90;;
83634;SDS011;73596;49.482;11.238;2024-01-11T05:28:34;2.97;;;1.73;;
83634;SDS011;73596;49.482;11.238;2024-01-11T05:31:00;21.23;;;5.47;;
83634;SDS011;73596;49.482;11.238;2024-01-11T05:33:25;20.20;;;7.75;;
83634;SDS011;73596;49.482;11.238;2024-01-11T05:35:50;16.55;;;6.03;;
83634;SDS011;73596;49.482;11.238;2024-01-11T05:38:17;15.30;;;5.88;;
83634;SDS011;73596;49.482;11.238;2024-01-11T05:40:42;15.20;;;4.87;;
83634;SDS011;73596;49.482;11.238;2024-01-11T05:43:07;14.47;;;4.73;;
83634;SDS011;73596;49.482;11.238;2024-01-11T05:45:32;11.77;;;6.03;;
83634;SDS011;73596;49.482;11.238;2024-01-11T05:47:58;14.98;;;4.60;;
83634;SDS011;73596;49.482;11.238;2024-01-11T05:50:24;8.27;;;5.35;;
83634;SDS011;73596;49.482;11.238;2024-01-11T05:52:49;4.93;;;3.28;;
83634;SDS011;73596;49.482;11.238;2024-01-11T05:55:16;9.07;;;3.47;;
83634;SDS011;73596;49.482;11.238;2024-01-11T05:57:41;7.28;;;4.15;;
83634;SDS011;73596;49.482;11.238;2024-01-11T06:00:06;12.70;;;4.50;;
83634;SDS011;73596;49.482;11.238;2024-01-11T06:02:32;7.93;;;4.25;;
83634;SDS011;73596;49.482;11.238;2024-01-11T06:04:57;10.53;;;3.87;;
83634;SDS011;73596;49.482;11.238;2024-01-11T06:07:22;13.20;;;5.90;;
83634;SDS011;73596;49.482;11.238;2024-01-11T06:09:48;11.35;;;4.07;;
83634;SDS011;73596;49.482;11.238;2024-01-11T06:12:14;8.38;;;2.83;;
83634;SDS011;73596;49.482;11.238;2024-01-11T06:14:39;5.40;;;4.22;;
83634;SDS011;73596;49.482;11.238;2024-01-11T06:17:04;6.73;;;3.50;;
83634;SDS011;73596;49.482;11.238;2024-01-11T06:19:30;5.03;;;2.73;;
83634;SDS011;73596;49.482;11.238;2024-01-11T06:21:55;8.63;;;4.10;;
83634;SDS011;73596;49.482;11.238;2024-01-11T06:24:20;3.70;;;2.37;;
83634;SDS011;73596;49.482;11.238;2024-01-11T06:26:45;6.13;;;2.60;;
83634;SDS011;73596;49.482;11.238;2024-01-11T06:29:11;4.77;;;3.73;;
83634;SDS011;73596;49.482;11.238;2024-01-11T06:31:36;6.57;;;2.80;;
83634;SDS011;73596;49.482;11.238;2024-01-11T06:34:01;4.77;;;2.40;;
83634;SDS011;73596;49.482;11.238;2024-01-11T06:36:26;8.50;;;3.47;;
83634;SDS011;73596;49.482;11.238;2024-01-11T06:38:52;9.03;;;5.50;;
83634;SDS011;73596;49.482;11.238;2024-01-11T06:41:17;13.13;;;4.40;;
83634;SDS011;73596;49.482;11.238;2024-01-11T06:43:42;14.17;;;5.57;;
83634;SDS011;73596;49.482;11.238;2024-01-11T06:46:07;6.97;;;3.73;;
83634;SDS011;73596;49.482;11.238;2024-01-11T06:48:34;5.85;;;3.53;;
83634;SDS011;73596;49.482;11.238;2024-01-11T06:50:59;7.15;;;3.70;;
83634;SDS011;73596;49.482;11.238;2024-01-11T06:53:24;5.50;;;2.70;;
83634;SDS011;73596;49.482;11.238;2024-01-11T06:55:50;5.00;;;3.50;;
83634;SDS011;73596;49.482;11.238;2024-01-11T06:58:17;5.90;;;3.53;;
83634;SDS011;73596;49.482;11.238;2024-01-11T07:00:42;5.57;;;3.78;;
83634;SDS011;73596;49.482;11.238;2024-01-11T07:03:11;10.48;;;3.83;;
83634;SDS011;73596;49.482;11.238;2024-01-11T07:05:36;8.38;;;3.47;;
83634;SDS011;73596;49.482;11.238;2024-01-11T07:08:02;5.30;;;3.03;;
83634;SDS011;73596;49.482;11.238;2024-01-11T07:10:27;8.18;;;1.70;;
83634;SDS011;73596;49.482;11.238;2024-01-11T07:12:52;3.83;;;2.43;;
83634;SDS011;73596;49.482;11.238;2024-01-11T07:15:18;9.50;;;4.73;;
83634;SDS011;73596;49.482;11.238;2024-01-11T07:17:43;12.57;;;3.63;;
83634;SDS011;73596;49.482;11.238;2024-01-11T07:20:08;12.20;;;4.53;;
83634;SDS011;73596;49.482;11.238;2024-01-11T07:22:35;7.65;;;1.98;;
83634;SDS011;73596;49.482;11.238;2024-01-11T07:25:00;6.45;;;3.60;;
83634;SDS011;73596;49.482;11.238;2024-01-11T07:27:25;4.83;;;3.30;;
83634;SDS011;73596;49.482;11.238;2024-01-11T07:29:51;10.13;;;3.87;;
83634;SDS011;73596;49.482;11.238;2024-01-11T07:32:16;6.97;;;2.53;;
83634;SDS011;73596;49.482;11.238;2024-01-11T07:34:41;6.10;;;3.90;;
83634;SDS011;73596;49.482;11.238;2024-01-11T07:37:07;8.80;;;2.93;;
83634;SDS011;73596;49.482;11.238;2024-01-11T07:39:33;7.40;;;4.47;;
83634;SDS011;73596;49.482;11.238;2024-01-11T07:41:59;8.32;;;4.20;;
83634;SDS011;73596;49.482;11.238;2024-01-11T07:44:24;12.30;;;2.72;;
83634;SDS011;73596;49.482;11.238;2024-01-11T07:46:50;7.50;;;4.53;;
83634;SDS011;73596;49.482;11.238;2024-01-11T07:49:15;8.40;;;3.60;;
83634;SDS011;73596;49.482;11.238;2024-01-11T07:51:40;12.13;;;5.30;;
83634;SDS011;73596;49.482;11.238;2024-01-11T07:54:05;9.13;;;3.90;;
83634;SDS011;73596;49.482;11.238;2024-01-11T07:56:31;6.97;;;3.27;;
83634;SDS011;73596;49.482;11.238;2024-01-11T07:58:56;7.27;;;2.90;;
83634;SDS011;73596;49.482;11.238;2024-01-11T08:01:21;4.07;;;1.83;;
83634;SDS011;73596;49.482;11.238;2024-01-11T08:03:47;18.48;;;7.68;;
83634;SDS011;73596;49.482;11.238;2024-01-11T08:06:12;14.93;;;5.67;;
83634;SDS011;73596;49.482;11.238;2024-01-11T08:08:38;10.73;;;6.72;;
83634;SDS011;73596;49.482;11.238;2024-01-11T08:11:09;13.13;;;6.32;;
83634;SDS011;73596;49.482;11.238;2024-01-11T08:13:37;12.75;;;6.68;;
83634;SDS011;73596;49.482;11.238;2024-01-11T08:16:03;28.65;;;8.48;;
83634;SDS011;73596;49.482;11.238;2024-01-11T08:18:29;15.02;;;8.38;;
83634;SDS011;73596;49.482;11.238;2024-01-11T08:20:55;15.82;;;7.57;;
83634;SDS011;73596;49.482;11.238;2024-01-11T08:23:21;12.73;;;6.50;;
83634;SDS011;73596;49.482;11.238;2024-01-11T08:25:46;20.03;;;8.10;;
83634;SDS011;73596;49.482;11.238;2024-01-11T08:28:11;34.53;;;7.45;;
83634;SDS011;73596;49.482;11.238;2024-01-11T08:30:37;15.67;;;6.83;;
83634;SDS011;73596;49.482;11.238;2024-01-11T08:33:02;22.23;;;7.23;;
83634;SDS011;73596;49.482;11.238;2024-01-11T08:35:28;13.02;;;6.45;;
83634;SDS011;73596;49.482;11.238;2024-01-11T08:37:54;21.42;;;6.68;;
83634;SDS011;73596;49.482;11.238;2024-01-11T08:40:19;22.23;;;8.27;;
83634;SDS011;73596;49.482;11.238;2024-01-11T08:42:45;17.38;;;9.40;;
83634;SDS011;73596;49.482;11.238;2024-01-11T08:45:11;7.90;;;5.63;;
83634;SDS011;73596;49.482;11.238;2024-01-11T08:47:42;8.27;;;5.50;;
83634;SDS011;73596;49.482;11.238;2024-01-11T08:50:11;16.20;;;6.68;;
83634;SDS011;73596;49.482;11.238;2024-01-11T08:52:37;17.58;;;8.18;;
83634;SDS011;73596;49.482;11.238;2024-01-11T08:55:04;13.10;;;4.20;;
83634;SDS011;73596;49.482;11.238;2024-01-11T08:57:30;15.15;;;6.43;;
83634;SDS011;73596;49.482;11.238;2024-01-11T08:59:55;18.10;;;6.50;;
83634;SDS011;73596;49.482;11.238;2024-01-11T09:02:20;9.07;;;6.13;;
83634;SDS011;73596;49.482;11.238;2024-01-11T09:04:46;14.35;;;7.57;;
83634;SDS011;73596;49.482;11.238;2024-01-11T09:07:12;20.80;;;7.15;;
83634;SDS011;73596;49.482;11.238;2024-01-11T09:09:37;13.75;;;7.38;;
83634;SDS011;73596;49.482;11.238;2024-01-11T09:12:03;17.20;;;6.47;;
83634;SDS011;73596;49.482;11.238;2024-01-11T09:14:28;13.15;;;8.15;;
83634;SDS011;73596;49.482;11.238;2024-01-11T09:16:54;25.67;;;8.43;;
83634;SDS011;73596;49.482;11.238;2024-01-11T09:19:20;14.68;;;6.45;;
83634;SDS011;73596;49.482;11.238;2024-01-11T09:21:45;12.48;;;5.63;;
83634;SDS011;73596;49.482;11.238;2024-01-11T09:24:10;14.40;;;6.07;;
83634;SDS011;73596;49.482;11.238;2024-01-11T09:26:35;14.87;;;6.63;;
83634;SDS011;73596;49.482;11.238;2024-01-11T09:29:01;15.00;;;6.78;;
83634;SDS011;73596;49.482;11.238;2024-01-11T09:31:27;14.60;;;6.80;;
83634;SDS011;73596;49.482;11.238;2024-01-11T09:33:52;17.10;;;9.07;;
83634;SDS011;73596;49.482;11.238;2024-01-11T09:36:17;28.85;;;9.00;;
83634;SDS011;73596;49.482;11.238;2024-01-11T09:38:43;15.02;;;7.07;;
83634;SDS011;73596;49.482;11.238;2024-01-11T09:41:08;20.03;;;6.53;;
83634;SDS011;73596;49.482;11.238;2024-01-11T09:43:36;11.32;;;5.35;;
83634;SDS011;73596;49.482;11.238;2024-01-11T09:46:03;13.18;;;6.00;;
83634;SDS011;73596;49.482;11.238;2024-01-11T09:48:33;9.52;;;5.28;;
83634;SDS011;73596;49.482;11.238;2024-01-11T09:51:00;9.95;;;5.60;;
83634;SDS011;73596;49.482;11.238;2024-01-11T09:53:27;16.83;;;6.57;;
83634;SDS011;73596;49.482;11.238;2024-01-11T09:55:53;14.77;;;7.78;;
83634;SDS011;73596;49.482;11.238;2024-01-11T09:58:20;13.98;;;7.82;;
83634;SDS011;73596;49.482;11.238;2024-01-11T10:00:47;11.38;;;6.15;;
83634;SDS011;73596;49.482;11.238;2024-01-11T10:03:18;12.70;;;5.78;;
83634;SDS011;73596;49.482;11.238;2024-01-11T10:05:44;16.13;;;6.88;;
83634;SDS011;73596;49.482;11.238;2024-01-11T10:08:10;14.57;;;7.70;;
83634;SDS011;73596;49.482;11.238;2024-01-11T10:10:36;18.80;;;8.70;;
83634;SDS011;73596;49.482;11.238;2024-01-11T10:13:01;13.10;;;6.80;;
83634;SDS011;73596;49.482;11.238;2024-01-11T10:15:26;14.77;;;6.97;;
83634;SDS011;73596;49.482;11.238;2024-01-11T10:17:52;16.93;;;8.17;;
83634;SDS011;73596;49.482;11.238;2024-01-11T10:20:17;16.50;;;8.33;;
83634;SDS011;73596;49.482;11.238;2024-01-11T10:22:42;12.37;;;6.70;;
83634;SDS011;73596;49.482;11.238;2024-01-11T10:25:09;15.10;;;7.13;;
83634;SDS011;73596;49.482;11.238;2024-01-11T10:27:36;10.50;;;5.63;;
83634;SDS011;73596;49.482;11.238;2024-01-11T10:30:01;13.00;;;6.72;;
83634;SDS011;73596;49.482;11.238;2024-01-11T10:32:28;18.50;;;8.25;;
83634;SDS011;73596;49.482;11.238;2024-01-11T10:34:53;16.90;;;8.90;;
83634;SDS011;73596;49.482;11.238;2024-01-11T10:37:19;19.33;;;8.67;;
83634;SDS011;73596;49.482;11.238;2024-01-11T10:39:46;12.50;;;5.47;;
83634;SDS011;73596;49.482;11.238;2024-01-11T10:42:15;11.45;;;4.03;;
83634;SDS011;73596;49.482;11.238;2024-01-11T10:44:48;10.15;;;4.75;;
83634;SDS011;73596;49.482;11.238;2024-01-11T10:47:14;10.45;;;4.45;;
83634;SDS011;73596;49.482;11.238;2024-01-11T10:49:41;16.63;;;8.05;;
83634;SDS011;73596;49.482;11.238;2024-01-11T10:52:09;15.63;;;6.30;;
83634;SDS011;73596;49.482;11.238;2024-01-11T10:54:37;19.38;;;6.93;;
83634;SDS011;73596;49.482;11.238;2024-01-11T10:57:04;15.85;;;6.47;;
83634;SDS011;73596;49.482;11.238;2024-01-11T10:59:32;18.38;;;6.78;;
83634;SDS011;73596;49.482;11.238;2024-01-11T11:02:02;21.85;;;7.63;;
83634;SDS011;73596;49.482;11.238;2024-01-11T11:04:31;18.35;;;6.43;;
83634;SDS011;73596;49.482;11.238;2024-01-11T11:06:59;12.30;;;6.72;;
83634;SDS011;73596;49.482;11.238;2024-01-11T11:09:26;18.60;;;7.53;;
83634;SDS011;73596;49.482;11.238;2024-01-11T11:11:56;12.82;;;7.47;;
83634;SDS011;73596;49.482;11.238;2024-01-11T11:14:23;16.48;;;7.22;;
83634;SDS011;73596;49.482;11.238;2024-01-11T11:16:49;16.02;;;6.25;;
83634;SDS011;73596;49.482;11.238;2024-01-11T11:19:16;15.98;;;7.78;;
83634;SDS011;73596;49.482;11.238;2024-01-11T11:21:43;12.48;;;6.40;;
83634;SDS011;73596;49.482;11.238;2024-01-11T11:24:10;16.52;;;6.43;;
83634;SDS011;73596;49.482;11.238;2024-01-11T11:26:35;15.55;;;6.38;;
83634;SDS011;73596;49.482;11.238;2024-01-11T11:29:01;15.45;;;7.80;;
83634;SDS011;73596;49.482;11.238;2024-01-11T11:31:42;13.30;;;6.55;;
83634;SDS011;73596;49.482;11.238;2024-01-11T11:34:11;18.30;;;7.70;;
83634;SDS011;73596;49.482;11.238;2024-01-11T11:36:36;15.60;;;6.80;;
83634;SDS011;73596;49.482;11.238;2024-01-11T11:39:02;12.93;;;6.30;;
83634;SDS011;73596;49.482;11.238;2024-01-11T11:41:27;12.77;;;5.82;;
83634;SDS011;73596;49.482;11.238;2024-01-11T11:43:55;14.85;;;5.78;;
83634;SDS011;73596;49.482;11.238;2024-01-11T11:46:25;19.00;;;5.88;;
83634;SDS011;73596;49.482;11.238;2024-01-11T11:48:51;14.32;;;6.18;;
83634;SDS011;73596;49.482;11.238;2024-01-11T11:51:18;15.02;;;7.55;;
83634;SDS011;73596;49.482;11.238;2024-01-11T11:53:45;15.35;;;7.07;;
83634;SDS011;73596;49.482;11.238;2024-01-11T11:56:12;7.97;;;4.63;;
83634;SDS011;73596;49.482;11.238;2024-01-11T11:58:39;16.70;;;5.88;;
83634;SDS011;73596;49.482;11.238;2024-01-11T12:01:05;9.30;;;5.77;;
83634;SDS011;73596;49.482;11.238;2024-01-11T12:03:34;14.50;;;5.30;;
83634;SDS011;73596;49.482;11.238;2024-01-11T12:06:03;13.32;;;4.20;;
83634;SDS011;73596;49.482;11.238;2024-01-11T12:08:33;9.98;;;4.97;;
83634;SDS011;73596;49.482;11.238;2024-01-11T12:11:00;14.13;;;4.75;;
83634;SDS011;73596;49.482;11.238;2024-01-11T12:13:26;13.80;;;5.82;;
83634;SDS011;73596;49.482;11.238;2024-01-11T12:15:51;17.63;;;5.90;;
83634;SDS011;73596;49.482;11.238;2024-01-11T12:18:17;10.02;;;5.00;;
83634;SDS011;73596;49.482;11.238;2024-01-11T12:20:42;19.10;;;7.07;;
83634;SDS011;73596;49.482;11.238;2024-01-11T12:23:07;10.52;;;4.00;;
83634;SDS011;73596;49.482;11.238;2024-01-11T12:25:33;13.90;;;6.90;;
83634;SDS011;73596;49.482;11.238;2024-01-11T12:27:58;11.23;;;5.85;;
83634;SDS011;73596;49.482;11.238;2024-01-11T12:30:25;10.45;;;4.00;;
83634;SDS011;73596;49.482;11.238;2024-01-11T12:32:50;18.23;;;6.95;;
83634;SDS011;73596;49.482;11.238;2024-01-11T12:35:16;13.77;;;6.25;;
83634;SDS011;73596;49.482;11.238;2024-01-11T12:38:01;12.10;;;4.60;;
83634;SDS011;73596;49.482;11.238;2024-01-11T12:40:34;17.45;;;8.15;;
83634;SDS011;73596;49.482;11.238;2024-01-11T12:43:00;12.00;;;5.82;;
83634;SDS011;73596;49.482;11.238;2024-01-11T12:45:25;17.60;;;7.63;;
83634;SDS011;73596;49.482;11.238;2024-01-11T12:47:51;12.68;;;5.40;;
83634;SDS011;73596;49.482;11.238;2024-01-11T12:50:16;12.98;;;7.25;;
83634;SDS011;73596;49.482;11.238;2024-01-11T12:52:42;17.55;;;6.18;;
83634;SDS011;73596;49.482;11.238;2024-01-11T12:55:08;14.48;;;6.82;;
83634;SDS011;73596;49.482;11.238;2024-01-11T12:57:43;9.85;;;4.95;;
83634;SDS011;73596;49.482;11.238;2024-01-11T13:00:09;14.85;;;7.65;;
83634;SDS011;73596;49.482;11.238;2024-01-11T13:02:36;14.25;;;5.30;;
83634;SDS011;73596;49.482;11.238;2024-01-11T13:05:01;11.50;;;5.68;;
83634;SDS011;73596;49.482;11.238;2024-01-11T13:07:27;13.07;;;5.78;;
83634;SDS011;73596;49.482;11.238;2024-01-11T13:09:53;20.83;;;8.23;;
83634;SDS011;73596;49.482;11.238;2024-01-11T13:12:18;15.30;;;6.60;;
83634;SDS011;73596;49.482;11.238;2024-01-11T13:14:45;20.00;;;7.63;;
83634;SDS011;73596;49.482;11.238;2024-01-11T13:17:11;20.20;;;8.17;;
83634;SDS011;73596;49.482;11.238;2024-01-11T13:19:36;14.75;;;7.47;;
83634;SDS011;73596;49.482;11.238;2024-01-11T13:22:02;15.07;;;8.38;;
83634;SDS011;73596;49.482;11.238;2024-01-11T13:24:27;17.80;;;8.25;;
83634;SDS011;73596;49.482;11.238;2024-01-11T13:26:52;21.23;;;8.07;;
83634;SDS011;73596;49.482;11.238;2024-01-11T13:29:18;18.67;;;8.83;;
83634;SDS011;73596;49.482;11.238;2024-01-11T13:31:43;16.23;;;6.33;;
83634;SDS011;73596;49.482;11.238;2024-01-11T13:34:08;15.90;;;6.93;;
83634;SDS011;73596;49.482;11.238;2024-01-11T13:36:33;16.60;;;5.60;;
83634;SDS011;73596;49.482;11.238;2024-01-11T13:38:59;12.57;;;4.55;;
83634;SDS011;73596;49.482;11.238;2024-01-11T13:41:25;9.60;;;4.75;;
83634;SDS011;73596;49.482;11.238;2024-01-11T13:43:50;10.68;;;5.93;;
83634;SDS011;73596;49.482;11.238;2024-01-11T13:46:16;9.07;;;4.43;;
83634;SDS011;73596;49.482;11.238;2024-01-11T13:48:44;13.32;;;6.55;;
83634;SDS011;73596;49.482;11.238;2024-01-11T13:51:10;15.85;;;7.43;;
83634;SDS011;73596;49.482;11.238;2024-01-11T13:53:38;9.35;;;4.45;;
83634;SDS011;73596;49.482;11.238;2024-01-11T13:56:03;13.60;;;5.20;;
83634;SDS011;73596;49.482;11.238;2024-01-11T13:58:29;9.93;;;4.75;;
83634;SDS011;73596;49.482;11.238;2024-01-11T14:00:54;10.73;;;4.47;;
83634;SDS011;73596;49.482;11.238;2024-01-11T14:03:19;8.20;;;3.83;;
83634;SDS011;73596;49.482;11.238;2024-01-11T14:05:45;17.57;;;6.37;;
83634;SDS011;73596;49.482;11.238;2024-01-11T14:08:10;12.43;;;6.53;;
83634;SDS011;73596;49.482;11.238;2024-01-11T14:10:35;12.37;;;5.80;;
83634;SDS011;73596;49.482;11.238;2024-01-11T14:13:01;12.82;;;7.05;;
83634;SDS011;73596;49.482;11.238;2024-01-11T14:15:27;15.27;;;4.95;;
83634;SDS011;73596;49.482;11.238;2024-01-11T14:17:53;11.80;;;4.22;;